Big Delta, AK

8:51 PM AKDT on April 23, 2018 (GMT -0800)
Allen Army Air Field | | Change Station
Active Advisory: Wind Advisory

Elev 1276 ft 63.99 °N, 145.72 °W | Updated 58 minutes ago

Overcast
Overcast
46 °F
Feels Like 38 °F
N
22
Wind Variable Wind from South
Gusts 33 mph

Today
High -- | Low -- °F
--% Chance of Precip.
Yesterday
High -- | Low -- °F
Precip. -- in
Pressure 29.63 in
Visibility 10.0 miles
Clouds Scattered Clouds 6000 ft
Scattered Clouds 10000 ft
Mostly Cloudy 17000 ft
Windchill 38 °F
Dew Point 31 °F
Humidity 56%
Rainfall 0.00 in
Snow Depth Not available.
5:42 AM 9:41 PM
Waxing Gibbous, 65% visible
METAR PABI 240353Z 18019G29KT 10SM SCT060 SCT100 BKN170 08/M01 A2959 RMK AO2 PK WND 17032/0304 SLP032 SHSN DSNT N-NE T00781006
Pressure 29.63 in
Visibility 10.0 miles
Clouds Scattered Clouds 6000 ft
Scattered Clouds 10000 ft
Mostly Cloudy 17000 ft
Windchill 38 °F
Dew Point 31 °F
Humidity 56%
Rainfall 0.00 in
Snow Depth Not available.
5:42 AM 9:41 PM
Waxing Gibbous, 65% visible
METAR PABI 240353Z 18019G29KT 10SM SCT060 SCT100 BKN170 08/M01 A2959 RMK AO2 PK WND 17032/0304 SLP032 SHSN DSNT N-NE T00781006

Get Your Daily Forecast Email!

Thanks for signing up!

Be on the lookout for a verification email in your inbox.

You'll start receiving severe weather alerts in your inbox..

×

10-Day Weather Forecast

Almanac

Astronomy

Apr. 23, 2018 Rise Set
Actual Time
Civil Twilight
Nautical Twilight
Astronomical Twilight
Moon
Length of Visible Light
Length of Day
Tomorrow will be .
, % of the Moon is Illuminated

Today's Extremes

State Highs State Lows

Community

WunderPhotos

Category 6

Welcome to Category 6. This is the collective home for Weather Underground's featured writeups by Dr. Jeff Masters (right), Bob Henson (left), Chris Burt, and other regular contributors.

Nearby

Air Quality

  Air Quality AQ Index Pollutant
Not available.

Snow Depth

Station Depth Elevation

Earthquake Activity

City Distance Mag. Time & Date
Minimum magnitude displayed is 2.5.

Coastal Water Temperatures

Place Temperature

Stations

Nearby Weather Stations

Station Location Temp. Windchill Dew Point Humidity Wind Precip. Elev Updated Type
                   

Watches & Warnings

Wind Advisory
Issued: 3:39 PM AKDT Apr. 23, 2018 – National Weather Service

... Wind Advisory remains in effect from midnight tonight to 6 am
akdt Wednesday...

* location... near Delta Junction

* winds... south gusting to 60 mph.

* Timing... strong south winds will develop late tonight and
continue through early Wednesday morning. The strongest winds
are expected Tuesday afternoon and evening.

Precautionary/preparedness actions...

A Wind Advisory means that strong winds are occurring or
expected. Travel may be difficult. Secure loose objects which may
be blown about by the wind.